Hauptseite
METAR-TAF:

METAR-TAF

Flughäfen :

Qikiqtarjuaq, Nunavut, Kanada

Breite: 67-33N, Länge: 064-02W, Höhe: 6 m

Beobachtung

Neuester Wetterbericht von vor 22 Minuten, um 22:00 UTC
Wind 4 kt aus Süd/Südwest, variierte zwischen Süd/Südost und Südwest
Temperatur -32°C
Luftfeuchtigkeit 74%
Luftdruck 1028 hPa
Sichtweite: 14.5 km
Himmel klar

METAR: CYVM 092200Z AUTO 21004KT 160V220 9SM CLR M32/M35 A3037 RMK SLP287

Zeit: 17:22 (22:22 UTC)

Prognose

Neuester Wetterbericht von vor 3 Stunden und 44 Minuten, um 18:38 UTC
Gültige Prognose vom 09 um 19 UTC bis 10 um 07 UTC
Wind 5 kt aus Süd/Südwest
Sichtweite: 10 km
Himmel klar

TAF: CYVM 091838Z 0919/1007 20005KT P6SM SKC RMK NXT FCST BY 100100Z

Wetterbeobachtungen und Prognosen von mehr als 4000 Flughäfen (METAR und TAF Bericht).

Die verfügbaren Stationen werden durch gelbe und rote Markierungen auf der Karte dargestellt.

Führen Sie die Maus auf sie, um den Namen der Station zu sehen.

Darauf klicken, um die Beobachtung von Wetterbeobachtungen und Prognosen zu sehen.

Um die Karte zu ändern : klicken Sie auf den grünen Tasten mit einem schwarzen Kreuz Zum Vergrößern, auf den grünen Button mit einem Gedankenstrich zu verkleinern, oder auf die grünen Pfeile für benachbarte Karten.


METAR-TAF: